Time;durP1;ratioP1;P1;durP2;ratioP2;P2;SDS_P1;SDS_P2;PMS_P1;PMS_P2;Temp;Humidity;BMP_temperature;BMP_pressure;BME280_temperature;BME280_humidity;BME280_pressure;Samples;Min_cycle;Max_cycle;Signal;HPM_P1;HPM_P2
2023/09/03 00:00:23;;;;;;;;;;;;;;;20.57;100.00;100285.75;4938186;29;20293;-72
2023/09/03 00:02:48;;;;;;;;;;;;;;;20.54;100.00;100286.16;4935534;29;20331;-72
2023/09/03 00:05:14;;;;;;;;;;;;;;;20.58;100.00;100282.06;4935788;29;20005;-73
2023/09/03 00:07:40;;;;;;;;;;;;;;;20.51;100.00;100274.97;4934526;29;20051;-72
2023/09/03 00:10:05;;;;;;;;;;;;;;;20.35;100.00;100276.03;4936062;29;19922;-73
2023/09/03 00:12:31;;;;;;;;;;;;;;;20.36;100.00;100275.00;4935374;29;19927;-72
2023/09/03 00:14:56;;;;;;;;;;;;;;;20.38;100.00;100281.03;4934711;29;20017;-72
2023/09/03 00:17:21;;;;;;;;;;;;;;;20.40;100.00;100278.97;4934742;29;20029;-72
2023/09/03 00:19:46;;;;;;;;;;;;;;;20.39;100.00;100285.34;4935632;29;19945;-72
2023/09/03 00:22:12;;;;;;;;;;;;;;;20.45;100.00;100281.91;4935200;29;20292;-72
2023/09/03 00:24:37;;;;;;;;;;;;;;;20.50;100.00;100292.09;4935581;29;20268;-72
2023/09/03 00:27:03;;;;;;;;;;;;;;;20.48;100.00;100292.28;4935534;29;19923;-72
2023/09/03 00:29:29;;;;;;;;;;;;;;;20.48;100.00;100297.63;4934819;29;19927;-72
2023/09/03 00:31:54;;;;;;;;;;;;;;;20.40;100.00;100300.41;4920454;29;19934;-72
2023/09/03 00:34:20;;;;;;;;;;;;;;;20.38;100.00;100302.47;4917840;29;19923;-73
2023/09/03 00:36:48;;;;;;;;;;;;;;;20.37;100.00;100300.81;4934675;29;20207;-73
2023/09/03 00:39:13;;;;;;;;;;;;;;;20.29;100.00;100304.38;4933722;29;20225;-73
2023/09/03 00:41:38;;;;;;;;;;;;;;;20.36;100.00;100296.47;4933863;29;19970;-73
2023/09/03 00:44:04;;;;;;;;;;;;;;;20.28;100.00;100301.88;4935594;29;19927;-73
2023/09/03 00:46:29;;;;;;;;;;;;;;;20.23;100.00;100298.94;4930649;29;20291;-73
2023/09/03 00:48:56;;;;;;;;;;;;;;;20.31;100.00;100293.47;4934933;29;19930;-73
2023/09/03 00:51:22;;;;;;;;;;;;;;;20.23;100.00;100298.94;4933395;29;19970;-72
2023/09/03 00:53:49;;;;;;;;;;;;;;;20.22;100.00;100292.75;4935180;29;19969;-74
2023/09/03 00:56:15;;;;;;;;;;;;;;;20.18;100.00;100291.47;4934640;29;20375;-73
2023/09/03 00:58:41;;;;;;;;;;;;;;;20.02;100.00;100297.03;4932776;29;19966;-73
2023/09/03 01:01:06;;;;;;;;;;;;;;;19.90;100.00;100294.00;4935816;29;19953;-73
2023/09/03 01:03:32;;;;;;;;;;;;;;;19.83;100.00;100290.38;4915583;29;19953;-73
2023/09/03 01:05:57;;;;;;;;;;;;;;;19.82;100.00;100294.06;4934661;29;20449;-73
2023/09/03 01:08:23;;;;;;;;;;;;;;;19.68;100.00;100286.84;4937767;29;20436;-73
2023/09/03 01:10:57;;;;;;;;;;;;;;;19.61;100.00;100283.25;4935540;29;19918;-72
2023/09/03 01:13:29;;;;;;;;;;;;;;;19.43;100.00;100274.72;4934958;29;19923;-72
2023/09/03 01:15:57;;;;;;;;;;;;;;;19.47;100.00;100276.03;4934060;29;19926;-72
2023/09/03 01:18:24;;;;;;;;;;;;;;;19.44;100.00;100279.06;4933360;29;20040;-72
2023/09/03 01:21:12;;;;;;;;;;;;;;;19.47;100.00;100286.75;4917674;29;20435;-72
2023/09/03 01:23:42;;;;;;;;;;;;;;;19.52;100.00;100279.81;4908136;29;20288;-71
2023/09/03 01:26:36;;;;;;;;;;;;;;;19.55;100.00;100278.66;4933739;29;20384;-72
2023/09/03 01:29:01;;;;;;;;;;;;;;;19.62;100.00;100279.53;4935187;29;19951;-73
2023/09/03 01:31:27;;;;;;;;;;;;;;;19.71;100.00;100286.50;4937376;29;20123;-73
2023/09/03 01:34:01;;;;;;;;;;;;;;;19.75;100.00;100290.47;4933736;29;19923;-72
2023/09/03 01:36:27;;;;;;;;;;;;;;;19.84;100.00;100292.06;4933488;29;19930;-72
2023/09/03 01:38:53;;;;;;;;;;;;;;;19.84;100.00;100300.09;4934122;29;19923;-73
2023/09/03 01:41:18;;;;;;;;;;;;;;;19.76;100.00;100296.66;4934066;29;19925;-73
2023/09/03 01:43:43;;;;;;;;;;;;;;;19.59;100.00;100296.00;4933130;29;19966;-72
2023/09/03 01:46:12;;;;;;;;;;;;;;;19.58;100.00;100295.16;4934164;29;19922;-72
2023/09/03 01:48:44;;;;;;;;;;;;;;;19.44;100.00;100303.94;4932844;29;19922;-71
2023/09/03 01:51:09;;;;;;;;;;;;;;;19.26;100.00;100297.28;4934083;29;19929;-71
2023/09/03 01:53:38;;;;;;;;;;;;;;;19.37;100.00;100296.84;4932518;29;19927;-71
2023/09/03 01:56:05;;;;;;;;;;;;;;;19.30;100.00;100295.91;4934279;29;19927;-72
2023/09/03 01:58:33;;;;;;;;;;;;;;;19.28;100.00;100295.25;4928436;29;19927;-71
2023/09/03 02:01:00;;;;;;;;;;;;;;;19.28;100.00;100277.34;4935586;29;19990;-72
2023/09/03 02:03:26;;;;;;;;;;;;;;;19.29;100.00;100288.88;4916642;29;19933;-73
2023/09/03 02:05:52;;;;;;;;;;;;;;;19.33;100.00;100279.47;4933919;29;20380;-73
2023/09/03 02:08:17;;;;;;;;;;;;;;;19.30;100.00;100286.03;4932367;29;19922;-73
2023/09/03 02:10:42;;;;;;;;;;;;;;;19.40;100.00;100283.09;4934125;29;19973;-73
2023/09/03 02:13:08;;;;;;;;;;;;;;;19.46;100.00;100285.06;4932721;29;19967;-73
2023/09/03 02:15:33;;;;;;;;;;;;;;;19.50;100.00;100283.69;4932736;29;19923;-73
2023/09/03 02:17:58;;;;;;;;;;;;;;;19.52;100.00;100284.34;4934021;29;19922;-72
2023/09/03 02:20:24;;;;;;;;;;;;;;;19.58;100.00;100283.63;4932596;29;19931;-73
2023/09/03 02:22:49;;;;;;;;;;;;;;;19.53;100.00;100286.00;4933745;29;19930;-72
2023/09/03 02:25:15;;;;;;;;;;;;;;;19.51;100.00;100288.03;4933748;29;19966;-72
2023/09/03 02:27:40;;;;;;;;;;;;;;;19.45;100.00;100294.09;4932568;29;19974;-72
2023/09/03 02:30:06;;;;;;;;;;;;;;;19.37;100.00;100288.81;4935627;29;19933;-72
2023/09/03 02:32:31;;;;;;;;;;;;;;;19.29;100.00;100294.25;4932181;29;19919;-73
2023/09/03 02:34:57;;;;;;;;;;;;;;;19.18;100.00;100293.66;4934091;29;19922;-72
2023/09/03 02:37:23;;;;;;;;;;;;;;;19.17;100.00;100301.88;4915296;29;20037;-73
2023/09/03 02:39:48;;;;;;;;;;;;;;;19.15;100.00;100294.00;4932476;29;19966;-73
2023/09/03 02:42:13;;;;;;;;;;;;;;;19.08;100.00;100303.78;4931957;29;19978;-73
2023/09/03 02:44:39;;;;;;;;;;;;;;;18.99;100.00;100296.81;4933948;29;19922;-72
2023/09/03 02:47:04;;;;;;;;;;;;;;;18.98;100.00;100291.66;4933614;29;20295;-73
2023/09/03 02:49:29;;;;;;;;;;;;;;;18.93;100.00;100299.38;4937137;29;20316;-73
2023/09/03 02:51:55;;;;;;;;;;;;;;;18.70;100.00;100299.38;4937454;29;19923;-73
2023/09/03 02:54:21;;;;;;;;;;;;;;;18.56;100.00;100294.78;4904029;29;19927;-71
2023/09/03 02:56:46;;;;;;;;;;;;;;;18.49;100.00;100291.13;4937217;29;20291;-72
2023/09/03 02:59:11;;;;;;;;;;;;;;;18.46;100.00;100294.13;4935644;29;19930;-73
2023/09/03 03:01:38;;;;;;;;;;;;;;;18.47;100.00;100293.13;4938451;29;19930;-73
2023/09/03 03:04:04;;;;;;;;;;;;;;;18.45;100.00;100284.44;4920087;29;19922;-71
2023/09/03 03:06:29;;;;;;;;;;;;;;;18.42;100.00;100291.84;4935084;29;20022;-73
2023/09/03 03:08:54;;;;;;;;;;;;;;;18.47;100.00;100293.13;4937198;29;19929;-73
2023/09/03 03:11:20;;;;;;;;;;;;;;;18.53;100.00;100303.13;4935182;29;19923;-73
2023/09/03 03:13:52;;;;;;;;;;;;;;;18.62;100.00;100302.91;4935946;29;19973;-73
2023/09/03 03:16:18;;;;;;;;;;;;;;;18.63;100.00;100293.91;4935735;29;19930;-74
2023/09/03 03:18:46;;;;;;;;;;;;;;;18.53;100.00;100292.44;4936401;29;19929;-73
2023/09/03 03:21:19;;;;;;;;;;;;;;;18.36;100.00;100297.88;4933712;29;20013;-73
2023/09/03 03:23:48;;;;;;;;;;;;;;;18.20;100.00;100292.59;4935545;29;20244;-72
2023/09/03 03:26:14;;;;;;;;;;;;;;;18.07;100.00;100302.19;4919230;29;19930;-72
2023/09/03 03:28:39;;;;;;;;;;;;;;;18.07;100.00;100297.66;4936744;29;19923;-71
2023/09/03 03:31:14;;;;;;;;;;;;;;;18.12;100.00;100300.66;4939547;29;19958;-71
2023/09/03 03:33:41;;;;;;;;;;;;;;;18.21;100.00;100299.59;4935154;29;20342;-73
2023/09/03 03:36:09;;;;;;;;;;;;;;;18.29;100.00;100304.09;4935343;29;19922;-72
2023/09/03 03:38:34;;;;;;;;;;;;;;;18.37;100.00;100299.53;4936402;29;19930;-73
2023/09/03 03:41:05;;;;;;;;;;;;;;;18.39;100.00;100297.50;4919254;29;20022;-73
2023/09/03 03:43:31;;;;;;;;;;;;;;;18.49;100.00;100304.50;4934892;29;19927;-72
2023/09/03 03:45:57;;;;;;;;;;;;;;;18.57;100.00;100296.44;4936432;29;20318;-72
2023/09/03 03:48:22;;;;;;;;;;;;;;;18.61;100.00;100305.78;4934541;29;20010;-73
2023/09/03 03:50:52;;;;;;;;;;;;;;;18.68;100.00;100306.72;4935111;29;20427;-71
2023/09/03 03:53:18;;;;;;;;;;;;;;;18.72;100.00;100308.06;4935950;29;20390;-72
2023/09/03 03:55:43;;;;;;;;;;;;;;;18.58;100.00;100308.81;4936153;29;20030;-73
2023/09/03 03:58:09;;;;;;;;;;;;;;;18.57;100.00;100309.81;4934269;29;19930;-72
2023/09/03 04:00:34;;;;;;;;;;;;;;;18.59;100.00;100307.81;4917931;29;19923;-72
2023/09/03 04:03:00;;;;;;;;;;;;;;;18.58;100.00;100300.78;4950809;23;19935;-81
2023/09/03 04:05:25;;;;;;;;;;;;;;;18.59;100.00;100302.44;4916980;29;19927;-81
2023/09/03 04:07:50;;;;;;;;;;;;;;;18.59;100.00;100313.97;4916922;29;19930;-81
2023/09/03 04:10:16;;;;;;;;;;;;;;;18.63;100.00;100312.59;4931325;29;20379;-81
2023/09/03 04:12:41;;;;;;;;;;;;;;;18.60;100.00;100321.00;4931044;29;19919;-80
2023/09/03 04:15:07;;;;;;;;;;;;;;;18.51;100.00;100315.81;4931446;29;19978;-80
2023/09/03 04:17:32;;;;;;;;;;;;;;;18.44;100.00;100314.88;4914810;29;19931;-80
2023/09/03 04:19:58;;;;;;;;;;;;;;;18.47;100.00;100314.50;4916823;29;19961;-81
2023/09/03 04:22:24;;;;;;;;;;;;;;;18.42;100.00;100313.22;4931075;29;20333;-81
2023/09/03 04:24:49;;;;;;;;;;;;;;;18.49;100.00;100312.50;4916877;29;19919;-81
2023/09/03 04:27:14;;;;;;;;;;;;;;;18.48;100.00;100310.84;4930583;29;19938;-81
2023/09/03 04:29:40;;;;;;;;;;;;;;;18.52;100.00;100306.81;4931034;29;20009;-81
2023/09/03 04:32:06;;;;;;;;;;;;;;;18.49;100.00;100307.16;4914925;29;19946;-81
2023/09/03 04:34:33;;;;;;;;;;;;;;;18.45;100.00;100300.47;4930871;29;19987;-81
2023/09/03 04:36:58;;;;;;;;;;;;;;;18.46;100.00;100302.16;4930981;29;20400;-81
2023/09/03 04:39:24;;;;;;;;;;;;;;;18.50;100.00;100298.13;4914872;29;19931;-81
2023/09/03 04:41:49;;;;;;;;;;;;;;;18.54;100.00;100302.13;4916605;29;19927;-81
2023/09/03 04:44:15;;;;;;;;;;;;;;;18.58;100.00;100300.78;4930234;29;20062;-81
2023/09/03 04:46:47;;;;;;;;;;;;;;;18.63;100.00;100309.09;4930665;29;19923;-80
2023/09/03 04:49:12;;;;;;;;;;;;;;;18.66;100.00;100311.44;4930351;29;20320;-81
2023/09/03 04:51:37;;;;;;;;;;;;;;;18.63;100.00;100315.28;4916146;29;20328;-81
2023/09/03 04:54:03;;;;;;;;;;;;;;;18.62;100.00;100307.44;4913496;29;19927;-81
2023/09/03 04:56:28;;;;;;;;;;;;;;;18.59;100.00;100302.44;4914141;29;19923;-81
2023/09/03 04:58:54;;;;;;;;;;;;;;;18.57;100.00;100299.94;4913838;29;20640;-81
2023/09/03 05:01:19;;;;;;;;;;;;;;;18.57;100.00;100304.47;4929212;29;20014;-81
2023/09/03 05:03:48;;;;;;;;;;;;;;;18.58;100.00;100322.16;4930710;29;20410;-79
2023/09/03 05:06:16;;;;;;;;;;;;;;;18.51;100.00;100332.69;4930654;29;19926;-79
2023/09/03 05:08:43;;;;;;;;;;;;;;;18.51;100.00;100342.53;4930869;29;20392;-80
2023/09/03 05:11:11;;;;;;;;;;;;;;;18.43;100.00;100340.78;4914308;29;20005;-80
2023/09/03 05:13:37;;;;;;;;;;;;;;;18.48;100.00;100340.25;4915017;29;19923;-80
2023/09/03 05:16:04;;;;;;;;;;;;;;;18.52;100.00;100338.88;4915805;29;19979;-81
2023/09/03 05:18:30;;;;;;;;;;;;;;;18.57;100.00;100341.88;4926469;29;20432;-80
2023/09/03 05:20:55;;;;;;;;;;;;;;;18.58;100.00;100347.06;4931028;29;19927;-80
2023/09/03 05:23:20;;;;;;;;;;;;;;;18.62;100.00;100355.53;4930764;29;20385;-80
2023/09/03 05:25:46;;;;;;;;;;;;;;;18.60;100.00;100362.94;4930811;29;20399;-80
2023/09/03 05:28:13;;;;;;;;;;;;;;;18.64;100.00;100366.91;4930890;29;20292;-80
2023/09/03 05:30:38;;;;;;;;;;;;;;;18.64;100.00;100369.59;4915865;29;19923;-80
2023/09/03 05:33:04;;;;;;;;;;;;;;;18.70;100.00;100379.56;4930621;29;19923;-79
2023/09/03 05:35:30;;;;;;;;;;;;;;;18.67;100.00;100374.59;4913096;29;19946;-79
2023/09/03 05:37:55;;;;;;;;;;;;;;;18.69;100.00;100372.56;4930246;29;20376;-80
2023/09/03 05:40:20;;;;;;;;;;;;;;;18.75;100.00;100377.22;4929983;29;19931;-81
2023/09/03 05:42:47;;;;;;;;;;;;;;;18.77;100.00;100376.03;4930380;29;19923;-81
2023/09/03 05:45:13;;;;;;;;;;;;;;;18.82;100.00;100378.19;4914103;29;19927;-79
2023/09/03 05:47:38;;;;;;;;;;;;;;;18.86;100.00;100373.28;4915172;29;19923;-79
2023/09/03 05:50:05;;;;;;;;;;;;;;;18.91;100.00;100374.44;4895405;29;19923;-80
2023/09/03 05:52:31;;;;;;;;;;;;;;;18.97;100.00;100375.56;4910252;29;19923;-80
2023/09/03 05:54:57;;;;;;;;;;;;;;;18.98;100.00;100383.41;4930182;29;20296;-80
2023/09/03 05:57:23;;;;;;;;;;;;;;;18.94;100.00;100376.78;4915163;29;19931;-81
2023/09/03 05:59:49;;;;;;;;;;;;;;;19.03;100.00;100381.03;4915480;29;19923;-80
2023/09/03 06:02:16;;;;;;;;;;;;;;;19.08;100.00;100377.84;4931965;29;19974;-80
2023/09/03 06:04:42;;;;;;;;;;;;;;;19.13;100.00;100386.19;4915325;29;19923;-80
2023/09/03 06:07:09;;;;;;;;;;;;;;;19.15;100.00;100390.31;4915304;29;19923;-78
2023/09/03 06:09:35;;;;;;;;;;;;;;;19.10;100.00;100382.00;4914680;29;20018;-79
2023/09/03 06:12:00;;;;;;;;;;;;;;;19.10;100.00;100381.16;4911566;29;19923;-79
2023/09/03 06:14:25;;;;;;;;;;;;;;;19.05;100.00;100384.38;4914555;29;19934;-80
2023/09/03 06:16:51;;;;;;;;;;;;;;;19.04;100.00;100385.38;4915033;29;19927;-79
2023/09/03 06:19:17;;;;;;;;;;;;;;;18.93;100.00;100375.09;4914306;29;20435;-81
2023/09/03 06:21:42;;;;;;;;;;;;;;;18.88;100.00;100377.47;4916654;29;20055;-80
2023/09/03 06:24:07;;;;;;;;;;;;;;;18.87;100.00;100378.47;4918657;29;19962;-80
2023/09/03 06:26:33;;;;;;;;;;;;;;;18.86;100.00;100376.81;4918602;29;19990;-81
2023/09/03 06:28:58;;;;;;;;;;;;;;;18.88;100.00;100377.47;4918699;29;20300;-81
2023/09/03 06:31:24;;;;;;;;;;;;;;;18.87;100.00;100375.81;4918476;29;19970;-81
2023/09/03 06:33:49;;;;;;;;;;;;;;;18.95;100.00;100377.59;4919796;29;20376;-81
2023/09/03 06:36:15;;;;;;;;;;;;;;;18.94;100.00;100382.13;4933031;29;19923;-80
2023/09/03 06:38:42;;;;;;;;;;;;;;;19.09;100.00;100380.34;4918543;29;20400;-80
2023/09/03 06:41:07;;;;;;;;;;;;;;;19.16;100.00;100381.28;4918500;29;19923;-79
2023/09/03 06:43:32;;;;;;;;;;;;;;;19.22;100.00;100379.75;4918250;29;19927;-80
2023/09/03 06:45:58;;;;;;;;;;;;;;;19.25;100.00;100370.53;4918516;29;19919;-81
2023/09/03 06:48:23;;;;;;;;;;;;;;;19.25;100.00;100367.88;4917579;29;19923;-81
2023/09/03 06:50:49;;;;;;;;;;;;;;;19.25;100.00;100381.25;4918248;29;19919;-80
2023/09/03 06:53:14;;;;;;;;;;;;;;;19.35;100.00;100376.47;4918068;29;20008;-80
2023/09/03 06:55:42;;;;;;;;;;;;;;;19.38;100.00;100381.50;4918698;29;19962;-80
2023/09/03 06:58:07;;;;;;;;;;;;;;;19.26;100.00;100385.59;4918252;29;19919;-77
2023/09/03 07:00:34;;;;;;;;;;;;;;;19.13;100.00;100384.34;4932774;29;19994;-79
2023/09/03 07:03:00;;;;;;;;;;;;;;;19.27;100.00;100376.53;4914642;29;20297;-80
2023/09/03 07:05:25;;;;;;;;;;;;;;;19.39;100.00;100391.16;4908078;29;19942;-80
2023/09/03 07:07:50;;;;;;;;;;;;;;;19.51;100.00;100387.06;4908241;29;20014;-80
2023/09/03 07:10:16;;;;;;;;;;;;;;;19.60;100.00;100392.19;4906948;29;19930;-80
2023/09/03 07:12:41;;;;;;;;;;;;;;;19.70;100.00;100399.97;4906822;29;19931;-80
2023/09/03 07:15:07;;;;;;;;;;;;;;;19.78;100.00;100402.59;4908923;29;19923;-80
2023/09/03 07:17:32;;;;;;;;;;;;;;;19.90;100.00;100411.00;4906303;29;19998;-80
2023/09/03 07:19:58;;;;;;;;;;;;;;;20.01;100.00;100419.44;4908329;29;19923;-78
2023/09/03 07:22:24;;;;;;;;;;;;;;;20.08;100.00;100419.53;4910621;29;19924;-80
2023/09/03 07:24:52;;;;;;;;;;;;;;;20.16;100.00;100432.00;4908557;29;19930;-80
2023/09/03 07:27:18;;;;;;;;;;;;;;;20.21;100.00;100418.88;4905292;29;19975;-80
2023/09/03 07:29:43;;;;;;;;;;;;;;;20.27;100.00;100423.50;4909317;29;20407;-79
2023/09/03 07:32:08;;;;;;;;;;;;;;;20.34;100.00;100432.50;4906869;29;19977;-78
2023/09/03 07:34:34;;;;;;;;;;;;;;;20.43;100.00;100423.38;4906828;29;19923;-79
2023/09/03 07:36:59;;;;;;;;;;;;;;;20.49;100.00;100422.63;4908959;29;20011;-78
2023/09/03 07:39:24;;;;;;;;;;;;;;;20.54;100.00;100414.84;4906894;29;20018;-79
2023/09/03 07:41:50;;;;;;;;;;;;;;;20.64;100.00;100410.03;4909238;29;19929;-81
2023/09/03 07:44:15;;;;;;;;;;;;;;;20.71;100.00;100400.22;4908664;29;20677;-80
2023/09/03 07:46:40;;;;;;;;;;;;;;;20.79;100.00;100408.13;4903238;29;19986;-80
2023/09/03 07:49:05;;;;;;;;;;;;;;;20.80;100.00;100404.44;4906119;29;19931;-78
2023/09/03 07:51:31;;;;;;;;;;;;;;;20.91;100.00;100411.16;4906340;29;19934;-79
2023/09/03 07:53:56;;;;;;;;;;;;;;;21.03;100.00;100416.91;4908272;29;19946;-79
2023/09/03 07:56:21;;;;;;;;;;;;;;;21.12;100.00;100424.63;4907469;29;19966;-80
2023/09/03 07:58:47;;;;;;;;;;;;;;;21.21;100.00;100423.50;4907297;29;20284;-79
2023/09/03 08:01:15;;;;;;;;;;;;;;;21.25;100.00;100413.25;4907597;29;19930;-80
2023/09/03 08:03:40;;;;;;;;;;;;;;;21.28;100.00;100417.38;4912914;29;19923;-80
2023/09/03 08:06:06;;;;;;;;;;;;;;;21.34;100.00;100412.09;4917248;29;20304;-80
2023/09/03 08:08:32;;;;;;;;;;;;;;;21.37;100.00;100417.09;4917512;29;20317;-80
2023/09/03 08:10:58;;;;;;;;;;;;;;;21.44;100.00;100426.00;4917692;29;20435;-80
2023/09/03 08:13:23;;;;;;;;;;;;;;;21.51;100.00;100424.22;4917479;29;19923;-80
2023/09/03 08:15:49;;;;;;;;;;;;;;;21.61;100.00;100422.06;4915861;29;20395;-80
2023/09/03 08:18:14;;;;;;;;;;;;;;;21.68;100.00;100426.66;4916529;29;19931;-80
2023/09/03 08:20:41;;;;;;;;;;;;;;;21.74;100.00;100423.19;4916931;29;19970;-79
2023/09/03 08:23:06;;;;;;;;;;;;;;;21.83;100.00;100427.41;4916754;29;19927;-80
2023/09/03 08:25:31;;;;;;;;;;;;;;;21.90;100.00;100428.28;4916091;29;20018;-80
2023/09/03 08:27:57;;;;;;;;;;;;;;;21.99;100.00;100432.50;4916505;29;19923;-80
2023/09/03 08:30:22;;;;;;;;;;;;;;;22.05;100.00;100437.13;4916065;29;20385;-81
2023/09/03 08:32:47;;;;;;;;;;;;;;;22.05;100.00;100431.72;4917124;29;19930;-81
2023/09/03 08:35:13;;;;;;;;;;;;;;;22.11;100.00;100436.31;4916218;29;19934;-80
2023/09/03 08:37:38;;;;;;;;;;;;;;;22.15;100.00;100428.72;4916337;29;19923;-80
2023/09/03 08:40:03;;;;;;;;;;;;;;;22.18;100.00;100431.84;4916060;29;19930;-78
2023/09/03 08:42:29;;;;;;;;;;;;;;;22.26;100.00;100439.75;4916112;29;19934;-79
2023/09/03 08:45:03;;;;;;;;;;;;;;;22.32;100.00;100430.91;4918049;29;20385;-80
2023/09/03 08:47:28;;;;;;;;;;;;;;;22.38;100.00;100422.00;4915921;29;19977;-78
2023/09/03 08:49:54;;;;;;;;;;;;;;;22.42;100.00;100417.91;4915858;29;19923;-79
2023/09/03 08:52:19;;;;;;;;;;;;;;;22.47;100.00;100403.88;4915923;29;19923;-80
2023/09/03 08:54:45;;;;;;;;;;;;;;;22.53;100.00;100407.63;4915563;29;20010;-77
2023/09/03 08:57:11;;;;;;;;;;;;;;;22.61;100.00;100410.16;4915761;29;20062;-79
2023/09/03 08:59:37;;;;;;;;;;;;;;;22.66;100.00;100403.13;4915849;29;19920;-78
2023/09/03 09:02:02;;;;;;;;;;;;;;;22.72;100.00;100401.53;4933028;29;20299;-80
2023/09/03 09:04:29;;;;;;;;;;;;;;;22.80;100.00;100404.03;4915654;29;20113;-80
2023/09/03 09:06:56;;;;;;;;;;;;;;;22.86;100.00;100409.44;4915785;29;20391;-79
2023/09/03 09:09:21;;;;;;;;;;;;;;;22.93;100.00;100403.25;4915053;29;19927;-80
2023/09/03 09:11:54;;;;;;;;;;;;;;;22.96;100.00;100398.31;4915695;29;20296;-80
2023/09/03 09:14:35;;;;;;;;;;;;;;;23.04;100.00;100395.41;4915343;29;19923;-80
2023/09/03 09:17:01;;;;;;;;;;;;;;;23.11;100.00;100390.88;4911965;29;19919;-79
2023/09/03 09:19:26;;;;;;;;;;;;;;;23.15;100.00;100397.50;4915039;29;19930;-79
2023/09/03 09:21:52;;;;;;;;;;;;;;;23.20;100.00;100405.00;4915575;29;19919;-79
2023/09/03 09:24:17;;;;;;;;;;;;;;;23.30;100.00;100399.22;4913666;29;19923;-80
2023/09/03 09:26:43;;;;;;;;;;;;;;;23.37;100.00;100405.44;4915276;29;19923;-78
2023/09/03 09:29:08;;;;;;;;;;;;;;;23.44;100.00;100403.59;4929923;29;19924;-79
2023/09/03 09:31:34;;;;;;;;;;;;;;;23.51;100.00;100402.56;4915038;29;19927;-80
2023/09/03 09:34:00;;;;;;;;;;;;;;;23.56;100.00;100401.97;4915800;29;19934;-80
2023/09/03 09:36:26;;;;;;;;;;;;;;;23.60;100.00;100405.91;4914969;29;19931;-80
2023/09/03 09:38:52;;;;;;;;;;;;;;;23.63;100.00;100392.00;4915226;29;20364;-80
2023/09/03 09:41:24;;;;;;;;;;;;;;;23.65;100.00;100396.16;4914951;29;19978;-81
2023/09/03 09:43:51;;;;;;;;;;;;;;;23.69;100.00;100388.50;4915098;29;19946;-79
2023/09/03 09:46:30;;;;;;;;;;;;;;;23.77;100.00;100390.16;4914732;29;19927;-80
2023/09/03 09:48:56;;;;;;;;;;;;;;;23.82;100.00;100387.66;4915317;29;20010;-81
2023/09/03 09:51:21;;;;;;;;;;;;;;;23.87;100.00;100380.59;4915004;29;20265;-81
2023/09/03 09:53:53;;;;;;;;;;;;;;;23.91;100.00;100383.72;4915350;29;19923;-81
2023/09/03 09:56:19;;;;;;;;;;;;;;;23.97;100.00;100381.03;4914425;29;19923;-80
2023/09/03 09:58:44;;;;;;;;;;;;;;;24.02;100.00;100381.22;4915035;29;19946;-81
2023/09/03 10:01:09;;;;;;;;;;;;;;;24.08;100.00;100387.63;4914858;29;19930;-81
2023/09/03 10:03:42;;;;;;;;;;;;;;;24.11;100.00;100375.59;4910003;29;19923;-80
2023/09/03 10:06:07;;;;;;;;;;;;;;;24.15;100.00;100382.22;4898798;29;19923;-82
2023/09/03 10:08:34;;;;;;;;;;;;;;;24.20;100.00;100374.38;4905564;29;20331;-81
2023/09/03 10:10:59;;;;;;;;;;;;;;;24.26;100.00;100376.22;4908132;29;20332;-81
2023/09/03 10:13:24;;;;;;;;;;;;;;;24.31;100.00;100376.41;4905170;29;20006;-81
2023/09/03 10:15:51;;;;;;;;;;;;;;;24.34;100.00;100381.38;4908386;29;20010;-82
2023/09/03 10:18:17;;;;;;;;;;;;;;;24.37;100.00;100387.19;4902822;29;19928;-81
2023/09/03 10:20:43;;;;;;;;;;;;;;;24.40;100.00;100388.59;4905870;29;20361;-81
2023/09/03 10:23:09;;;;;;;;;;;;;;;24.44;100.00;100387.16;4907303;29;19924;-81
2023/09/03 10:25:35;;;;;;;;;;;;;;;24.47;100.00;100395.66;4904851;29;19946;-79
2023/09/03 10:28:03;;;;;;;;;;;;;;;24.51;100.00;100392.50;4904288;29;19924;-81
2023/09/03 10:30:31;;;;;;;;;;;;;;;24.56;100.00;100390.84;4907109;29;19924;-81
2023/09/03 10:32:57;;;;;;;;;;;;;;;24.63;100.00;100391.63;4904996;29;19924;-80
2023/09/03 10:35:23;;;;;;;;;;;;;;;24.69;100.00;100388.09;4906969;29;20381;-81
2023/09/03 10:37:51;;;;;;;;;;;;;;;24.75;100.00;100384.53;4905784;29;20005;-82
2023/09/03 10:40:24;;;;;;;;;;;;;;;24.79;100.00;100383.06;4904371;29;20022;-81
2023/09/03 10:42:53;;;;;;;;;;;;;;;24.87;100.00;100377.41;4889777;29;19924;-82
2023/09/03 10:45:19;;;;;;;;;;;;;;;24.95;100.00;100380.94;4904023;29;19927;-81
2023/09/03 10:47:56;;;;;;;;;;;;;;;24.97;100.00;100376.16;4905689;29;20018;-80
2023/09/03 10:50:40;;;;;;;;;;;;;;;25.05;100.00;100374.00;4906312;29;19954;-82
2023/09/03 10:53:06;;;;;;;;;;;;;;;25.08;100.00;100367.38;4898202;29;19927;-82
2023/09/03 10:55:31;;;;;;;;;;;;;;;25.12;100.00;100357.78;4906645;29;19928;-82
2023/09/03 10:58:16;;;;;;;;;;;;;;;25.17;100.00;100360.66;4904051;29;19924;-81
2023/09/03 11:01:02;;;;;;;;;;;;;;;25.24;100.00;100356.03;4904641;29;19938;-82
2023/09/03 11:03:28;;;;;;;;;;;;;;;25.34;100.00;100350.97;4906727;29;20333;-82
2023/09/03 11:06:12;;;;;;;;;;;;;;;25.43;100.00;100352.34;4904970;29;19929;-80
2023/09/03 11:08:39;;;;;;;;;;;;;;;25.55;100.00;100347.91;4904780;29;19971;-81
2023/09/03 11:11:04;;;;;;;;;;;;;;;25.68;100.00;100353.19;4910544;29;20313;-81
2023/09/03 11:13:29;;;;;;;;;;;;;;;25.78;100.00;100357.28;4908543;29;19983;-82
2023/09/03 11:15:55;;;;;;;;;;;;;;;25.87;100.00;100354.06;4908132;29;19969;-81
2023/09/03 11:18:21;;;;;;;;;;;;;;;25.92;100.00;100348.00;4908053;29;20028;-81
2023/09/03 11:20:48;;;;;;;;;;;;;;;25.93;100.00;100338.81;4908803;29;19924;-82
2023/09/03 11:23:13;;;;;;;;;;;;;;;25.95;100.00;100336.72;4909735;29;19931;-81
2023/09/03 11:25:40;;;;;;;;;;;;;;;26.01;100.00;100330.44;4907825;29;19943;-82
2023/09/03 11:28:12;;;;;;;;;;;;;;;26.05;100.00;100320.81;4908529;29;19972;-81
2023/09/03 11:30:45;;;;;;;;;;;;;;;26.09;100.00;100322.03;4909608;29;19923;-81
2023/09/03 11:33:23;;;;;;;;;;;;;;;26.10;100.00;100324.47;4907543;29;19923;-81
2023/09/03 11:35:48;;;;;;;;;;;;;;;26.17;100.00;100324.41;4907106;29;19930;-82
2023/09/03 11:38:13;;;;;;;;;;;;;;;26.22;100.00;100327.25;4907810;29;19924;-80
2023/09/03 11:40:40;;;;;;;;;;;;;;;26.30;100.00;100326.16;4907680;29;20003;-81
2023/09/03 11:43:08;;;;;;;;;;;;;;;26.43;100.00;100326.84;4910131;29;19923;-80
2023/09/03 11:45:34;;;;;;;;;;;;;;;26.58;100.00;100326.44;4907615;29;19927;-80
2023/09/03 11:47:59;;;;;;;;;;;;;;;26.70;100.00;100313.78;4907790;29;20356;-82
2023/09/03 11:50:25;;;;;;;;;;;;;;;26.79;100.00;100317.00;4910223;29;19924;-82
2023/09/03 11:52:59;;;;;;;;;;;;;;;26.86;100.00;100312.31;4907031;29;19978;-82
2023/09/03 11:55:51;;;;;;;;;;;;;;;26.96;100.00;100307.19;4908122;29;19923;-82
2023/09/03 11:58:19;;;;;;;;;;;;;;;27.11;100.00;100298.63;4904575;29;19943;-82
2023/09/03 12:00:45;;;;;;;;;;;;;;;27.26;99.63;100291.72;4907419;29;19928;-81
2023/09/03 12:03:10;;;;;;;;;;;;;;;27.41;97.69;100293.13;4907318;29;20658;-81
2023/09/03 12:05:35;;;;;;;;;;;;;;;27.62;98.92;100289.88;4910306;29;20026;-80
2023/09/03 12:08:02;;;;;;;;;;;;;;;27.86;97.00;100296.94;4903507;29;19923;-81
2023/09/03 12:10:27;;;;;;;;;;;;;;;28.06;96.46;100291.09;4909132;29;19966;-81
2023/09/03 12:12:52;;;;;;;;;;;;;;;28.27;95.92;100292.41;4904312;29;19959;-81
2023/09/03 12:15:19;;;;;;;;;;;;;;;28.42;90.12;100289.97;4910116;29;19931;-82
2023/09/03 12:17:44;;;;;;;;;;;;;;;28.55;91.20;100286.97;4903359;29;19931;-82
2023/09/03 12:20:29;;;;;;;;;;;;;;;28.75;90.57;100281.94;4905858;29;19923;-81
2023/09/03 12:22:55;;;;;;;;;;;;;;;28.92;82.39;100274.66;4909230;29;20015;-80
2023/09/03 12:25:20;;;;;;;;;;;;;;;29.06;82.78;100266.19;4906368;29;20363;-80